This is the latest recevied weather packets stored in our database for station/object NY3Q. If no packets are shown the sender has not sent any weather packets the latest 10 day(s).
| Time | Temp. | Humidity | Pressure | Rain* | Wind** | Luminosity | Snow |
|---|---|---|---|---|---|---|---|
| 1778092496 | 33.33° C | 51% | 1015.9 hPa | 0 mm | - | 156 W/m² | - |
| 1778092193 | 33.89° C | 43% | 1016.1 hPa | 0 mm | - | 615 W/m² | - |
| 1778091890 | 33.89° C | 43% | 1016.1 hPa | 0 mm | - | 654 W/m² | - |
| 1778091587 | 33.89° C | 43% | 1016.3 hPa | 0 mm | - | 641 W/m² | - |
| 1778091285 | 33.89° C | 43% | 1016.1 hPa | 0 mm | - | 647 W/m² | - |
| 1778090982 | 33.89° C | 44% | 1016.2 hPa | 0 mm | - | 581 W/m² | - |
| 1778090678 | 33.33° C | 44% | 1016.3 hPa | 0 mm | - | 625 W/m² | - |
| 1778090375 | 33.33° C | 43% | 1016.2 hPa | 0 mm | - | 594 W/m² | - |
| 1778090072 | 33.33° C | 46% | 1016.3 hPa | 0 mm | - | 614 W/m² | - |
| 1778089768 | 33.33° C | 47% | 1016.5 hPa | 0 mm | - | 666 W/m² | - |
| 1778089467 | 33.33° C | 44% | 1016.4 hPa | 0 mm | - | 612 W/m² | - |
| 1778089163 | 32.78° C | 45% | 1016.5 hPa | 0 mm | - | 627 W/m² | - |
| 1778088860 | 32.78° C | 46% | 1016.4 hPa | 0 mm | - | 514 W/m² | - |
| 1778088557 | 32.78° C | 46% | 1016.8 hPa | 0 mm | - | 605 W/m² | - |
| 1778088254 | 32.78° C | 47% | 1016.5 hPa | 0 mm | - | 588 W/m² | - |
| 1778087951 | 32.78° C | 48% | 1017 hPa | 0 mm | - | 609 W/m² | - |
| 1778087648 | 32.78° C | 49% | 1016.9 hPa | 0 mm | - | 610 W/m² | - |
| 1778087347 | 32.78° C | 48% | 1017 hPa | 0 mm | - | 520 W/m² | - |
| 1778087042 | 32.78° C | 47% | 1017 hPa | 0 mm | - | 580 W/m² | - |
| 1778086741 | 32.78° C | 49% | 1017.2 hPa | 0 mm | - | 594 W/m² | - |
| 1778086439 | 32.22° C | 48% | 1017.3 hPa | 0 mm | - | 574 W/m² | - |
| 1778086135 | 32.22° C | 51% | 1017.4 hPa | 0 mm | - | 607 W/m² | - |
| 1778085831 | 31.67° C | 50% | 1017.4 hPa | 0 mm | - | 549 W/m² | - |
| 1778085529 | 32.22° C | 49% | 1017.3 hPa | 0 mm | - | 512 W/m² | - |
| 1778085223 | 32.22° C | 48% | 1017.4 hPa | 0 mm | - | 470 W/m² | - |
* Rain latest hour (hover to see other rain measurements)
** Current wind speed in m/s (hover to see current wind gust speed)